createdAt,value
2018-04-12T00:01:43.506Z,67.57
2018-04-12T00:04:11.932Z,69.87
2018-04-12T00:06:40.359Z,73.23
2018-04-12T00:09:08.844Z,70.37
2018-04-12T00:11:36.914Z,70.30
2018-04-12T00:14:05.021Z,69.87
2018-04-12T00:16:32.723Z,71.10
2018-04-12T00:19:00.827Z,76.93
2018-04-12T00:21:28.448Z,81.97
2018-04-12T00:23:56.135Z,79.60
2018-04-12T00:26:24.191Z,75.57
2018-04-12T00:28:52.250Z,78.37
2018-04-12T00:31:19.888Z,78.70
2018-04-12T00:33:48.765Z,81.13
2018-04-12T00:36:16.440Z,82.77
2018-04-12T00:38:44.892Z,82.83
2018-04-12T00:41:13.340Z,76.90
2018-04-12T00:43:41.024Z,79.87
2018-04-12T00:46:09.511Z,78.73
2018-04-12T00:48:37.203Z,77.67
2018-04-12T00:51:06.460Z,76.37
2018-04-12T00:53:45.858Z,71.10
2018-04-12T00:56:37.535Z,66.67
2018-04-12T00:59:05.948Z,65.17
2018-04-12T01:01:34.028Z,60.03
2018-04-12T01:04:02.436Z,63.83
2018-04-12T01:06:30.141Z,71.23
2018-04-12T01:08:58.179Z,71.77
2018-04-12T01:11:25.858Z,64.23
2018-04-12T01:13:53.957Z,70.00
2018-04-12T01:16:22.408Z,67.00
2018-04-12T01:18:50.094Z,76.37
2018-04-12T01:21:17.787Z,74.30
2018-04-12T01:23:46.176Z,71.97
2018-04-12T01:26:14.599Z,73.40
2018-04-12T01:28:42.310Z,65.77
2018-04-12T01:31:10.393Z,73.37
2018-04-12T01:33:38.424Z,74.90
2018-04-12T01:36:06.078Z,68.90
2018-04-12T01:38:33.708Z,71.47
2018-04-12T01:41:01.365Z,74.63
2018-04-12T01:43:29.043Z,74.80
2018-04-12T01:45:57.512Z,73.90
2018-04-12T01:48:25.927Z,78.67
2018-04-12T01:50:53.624Z,73.17
2018-04-12T01:53:22.390Z,78.70
2018-04-12T01:55:50.019Z,69.77
2018-04-12T01:58:17.672Z,61.70
2018-04-12T02:00:45.306Z,72.03
2018-04-12T02:03:13.703Z,72.63
2018-04-12T02:05:41.334Z,66.70
2018-04-12T02:08:09.734Z,71.60
2018-04-12T02:10:37.441Z,70.67
2018-04-12T02:13:05.127Z,72.23
2018-04-12T02:15:33.578Z,71.40
2018-04-12T02:18:01.249Z,65.87
2018-04-12T02:20:29.367Z,75.03
2018-04-12T02:22:57.410Z,70.30
2018-04-12T02:25:25.858Z,73.50
2018-04-12T02:27:54.251Z,61.33
2018-04-12T02:30:22.343Z,63.67
2018-04-12T02:32:50.731Z,58.53
2018-04-12T02:35:19.920Z,58.03
2018-04-12T02:37:48.375Z,55.47
2018-04-12T02:40:16.395Z,60.27
2018-04-12T02:42:44.101Z,61.83
2018-04-12T02:45:12.487Z,73.40
2018-04-12T02:47:40.162Z,59.87
2018-04-12T02:50:08.278Z,67.53
2018-04-12T02:52:36.347Z,66.93
2018-04-12T02:55:04.742Z,70.67
2018-04-12T02:57:32.432Z,69.27
2018-04-12T03:00:00.863Z,71.63
2018-04-12T03:02:28.526Z,61.50
2018-04-12T03:04:56.155Z,67.57
2018-04-12T03:07:23.793Z,64.27
2018-04-12T03:09:51.449Z,65.33
2018-04-12T03:12:19.929Z,59.17
2018-04-12T03:14:48.012Z,66.20
2018-04-12T03:17:16.698Z,60.40
2018-04-12T03:19:45.509Z,65.57
2018-04-12T03:22:13.226Z,68.73
2018-04-12T03:24:40.951Z,62.00
2018-04-12T03:27:09.395Z,65.93
2018-04-12T03:29:37.831Z,57.37
2018-04-12T03:32:05.878Z,66.17
2018-04-12T03:34:34.271Z,58.30
2018-04-12T03:37:03.839Z,63.23
2018-04-12T03:39:31.471Z,57.47
2018-04-12T03:41:59.176Z,50.97
2018-04-12T03:44:26.887Z,59.97
2018-04-12T03:46:55.335Z,61.07
2018-04-12T03:49:23.759Z,49.87
2018-04-12T03:51:51.807Z,60.27
2018-04-12T03:54:19.486Z,56.13
2018-04-12T03:56:47.941Z,56.57
2018-04-12T03:59:15.643Z,55.93
2018-04-12T04:01:44.038Z,49.83
2018-04-12T04:04:12.487Z,51.00
2018-04-12T04:06:40.206Z,66.07
2018-04-12T04:09:08.972Z,58.00
2018-04-12T04:11:36.664Z,52.30
2018-04-12T04:14:05.145Z,56.43
2018-04-12T04:19:48.507Z,54.70
2018-04-12T04:22:17.015Z,53.00
2018-04-12T04:24:57.667Z,54.30
2018-04-12T04:27:26.175Z,55.07
2018-04-12T04:30:06.667Z,48.07
2018-04-12T04:32:34.357Z,48.97
2018-04-12T04:35:13.479Z,57.77
2018-04-12T04:37:41.157Z,52.03
2018-04-12T04:40:09.624Z,48.57
2018-04-12T04:42:37.706Z,55.53
2018-04-12T04:45:07.275Z,52.10
2018-04-12T04:47:35.002Z,60.10
2018-04-12T04:50:02.820Z,65.90
2018-04-12T04:52:30.925Z,55.30
2018-04-12T04:55:01.961Z,59.60
2018-04-12T04:57:29.705Z,53.73
2018-04-12T04:59:58.326Z,59.30
2018-04-12T05:02:26.124Z,52.17
2018-04-12T05:05:01.656Z,58.37
2018-04-12T05:07:29.377Z,59.67
2018-04-12T05:09:58.009Z,56.70
2018-04-12T05:12:26.154Z,58.37
2018-04-12T05:15:01.817Z,53.00
2018-04-12T05:17:29.568Z,47.53
2018-04-12T05:19:57.812Z,58.50
2018-04-12T05:22:26.308Z,53.00
2018-04-12T05:24:59.420Z,59.33
2018-04-12T05:27:27.862Z,59.20
2018-04-12T05:30:02.745Z,57.23
2018-04-12T05:32:30.424Z,54.43
2018-04-12T05:35:04.157Z,62.67
2018-04-12T05:37:31.848Z,62.60
2018-04-12T05:40:00.719Z,57.53
2018-04-12T05:42:29.166Z,56.13
2018-04-12T05:44:56.932Z,59.80
2018-04-12T05:47:24.637Z,54.97
2018-04-12T05:49:52.452Z,51.30
2018-04-12T05:52:20.207Z,54.87
2018-04-12T05:54:52.426Z,51.30
2018-04-12T05:57:20.918Z,59.63
2018-04-12T05:59:54.025Z,46.60
2018-04-12T06:02:22.833Z,56.97
2018-04-12T06:04:57.132Z,54.60
2018-04-12T06:07:24.856Z,52.83
2018-04-12T06:09:53.460Z,60.97
2018-04-12T06:12:21.181Z,53.10
2018-04-12T06:14:51.348Z,61.03
2018-04-12T06:17:19.033Z,54.30
2018-04-12T06:19:46.888Z,50.63
2018-04-12T06:22:14.572Z,55.00
2018-04-12T06:24:42.419Z,53.30
2018-04-12T06:27:10.536Z,57.33
2018-04-12T06:29:38.717Z,50.43
2018-04-12T06:32:07.909Z,56.87
2018-04-12T06:34:36.508Z,52.73
2018-04-12T06:37:08.492Z,63.50
2018-04-12T06:39:36.750Z,56.77
2018-04-12T06:42:05.285Z,60.63
2018-04-12T06:44:32.931Z,59.20
2018-04-12T06:47:02.455Z,58.33
2018-04-12T06:49:30.240Z,62.57
2018-04-12T06:51:59.504Z,62.00
2018-04-12T06:54:27.180Z,60.93
2018-04-12T06:56:54.976Z,62.53
2018-04-12T06:59:22.722Z,56.87
2018-04-12T07:01:53.663Z,64.07
2018-04-12T07:04:22.201Z,68.93
2018-04-12T07:06:50.072Z,60.73
2018-04-12T07:09:17.753Z,71.50
2018-04-12T07:11:45.686Z,59.30
2018-04-12T07:14:14.748Z,63.43
2018-04-12T07:16:45.141Z,58.30
2018-04-12T07:19:14.519Z,59.93
2018-04-12T07:21:44.869Z,65.03
2018-04-12T07:24:12.509Z,66.97
2018-04-12T07:26:44.416Z,66.17
2018-04-12T07:29:12.177Z,66.47
2018-04-12T07:31:40.764Z,59.33
2018-04-12T07:34:09.779Z,63.33
2018-04-12T07:36:38.097Z,60.13
2018-04-12T07:39:06.269Z,62.37
2018-04-12T07:41:34.065Z,64.17
2018-04-12T07:44:01.820Z,59.40
2018-04-12T07:46:29.775Z,67.60
2018-04-12T07:48:57.474Z,65.93
2018-04-12T07:51:25.267Z,67.03
2018-04-12T07:53:54.021Z,63.17
2018-04-12T07:56:24.287Z,66.03
2018-04-12T07:58:52.451Z,66.20
2018-04-12T08:01:21.161Z,74.53
2018-04-12T08:03:48.871Z,69.63
2018-04-12T08:06:29.347Z,69.63
2018-04-12T08:08:57.826Z,62.33
2018-04-12T08:11:29.650Z,61.63
2018-04-12T08:13:57.380Z,67.63
2018-04-12T08:16:29.556Z,67.20
2018-04-12T08:18:57.272Z,67.20
2018-04-12T08:21:32.817Z,71.17
2018-04-12T08:24:01.308Z,72.30
2018-04-12T08:26:42.948Z,71.03
2018-04-12T08:29:10.626Z,69.93
2018-04-12T08:31:44.213Z,74.10
2018-04-12T08:34:11.859Z,77.10
2018-04-12T08:36:43.165Z,68.03
2018-04-12T08:39:11.595Z,82.60
2018-04-12T08:41:40.331Z,85.90
2018-04-12T08:44:08.829Z,89.83
2018-04-12T08:46:36.935Z,81.60
2018-04-12T08:49:05.398Z,85.07
2018-04-12T08:51:33.189Z,69.87
2018-04-12T08:54:01.596Z,84.30
2018-04-12T08:56:30.205Z,81.80
2018-04-12T08:58:58.616Z,75.83
2018-04-12T09:01:29.814Z,91.13
2018-04-12T09:03:58.267Z,77.37
2018-04-12T09:06:27.451Z,86.37
2018-04-12T09:08:55.530Z,77.47
2018-04-12T09:11:24.079Z,79.63
2018-04-12T09:13:52.249Z,80.03
2018-04-12T09:16:21.009Z,77.20
2018-04-12T09:18:49.092Z,83.03
2018-04-12T09:21:17.258Z,75.33
2018-04-12T09:23:45.726Z,67.97
2018-04-12T09:26:17.749Z,70.97
2018-04-12T09:28:45.436Z,67.70
2018-04-12T09:31:14.187Z,68.20
2018-04-12T09:33:42.735Z,67.47
2018-04-12T09:36:15.018Z,65.93
2018-04-12T09:38:42.771Z,69.07
2018-04-12T09:41:19.380Z,59.87
2018-04-12T09:43:47.092Z,59.37
2018-04-12T09:46:15.645Z,62.17
2018-04-12T09:48:44.155Z,64.50
2018-04-12T09:51:19.453Z,60.63
2018-04-12T09:53:47.485Z,60.37
2018-04-12T09:56:22.959Z,55.97
2018-04-12T09:58:50.677Z,58.33
2018-04-12T10:01:19.286Z,54.87
2018-04-12T10:03:47.051Z,56.87
2018-04-12T10:06:20.785Z,55.93
2018-04-12T10:09:17.869Z,57.83
2018-04-12T10:11:45.613Z,59.43
2018-04-12T10:14:17.271Z,55.43
2018-04-12T10:16:44.998Z,56.20
2018-04-12T10:19:18.615Z,60.63
2018-04-12T10:21:46.361Z,54.30
2018-04-12T10:24:21.023Z,56.30
2018-04-12T10:26:49.512Z,56.83
2018-04-12T10:29:18.269Z,55.30
2018-04-12T10:31:46.014Z,59.77
2018-04-12T10:34:19.486Z,58.17
2018-04-12T10:36:47.941Z,55.67
2018-04-12T10:39:15.686Z,58.10
2018-04-12T10:41:43.480Z,62.70
2018-04-12T10:44:22.422Z,54.43
2018-04-12T10:46:51.273Z,57.63
2018-04-12T10:49:19.008Z,55.40
2018-04-12T10:51:47.114Z,57.10
2018-04-12T10:54:16.617Z,53.90
2018-04-12T10:56:45.477Z,53.80
2018-04-12T10:59:17.130Z,57.43
2018-04-12T11:01:44.841Z,58.90
2018-04-12T11:04:18.669Z,55.10
2018-04-12T11:06:46.423Z,52.57
2018-04-12T11:09:23.596Z,57.40
2018-04-12T11:11:51.276Z,54.00
2018-04-12T11:14:19.810Z,70.27
2018-04-12T11:16:47.509Z,59.37
2018-04-12T11:19:16.507Z,59.57
2018-04-12T11:21:45.147Z,53.67
2018-04-12T11:24:14.962Z,55.17
2018-04-12T11:26:43.791Z,56.63
2018-04-12T11:29:11.970Z,59.10
2018-04-12T11:31:40.523Z,59.47
2018-04-12T11:34:12.973Z,63.23
2018-04-12T11:36:41.061Z,55.90
2018-04-12T11:39:08.876Z,51.63
2018-04-12T11:41:36.588Z,57.03
2018-04-12T11:44:10.447Z,56.03
2018-04-12T11:46:38.533Z,56.93
2018-04-12T11:49:09.736Z,52.90
2018-04-12T11:51:37.425Z,52.57
2018-04-12T11:54:10.707Z,48.87
2018-04-12T11:56:39.182Z,55.07
2018-04-12T11:59:07.757Z,54.90
2018-04-12T12:01:35.484Z,52.90
2018-04-12T12:04:05.216Z,56.60
2018-04-12T12:06:32.964Z,51.60
2018-04-12T12:09:01.177Z,50.73
2018-04-12T12:11:28.929Z,48.57
2018-04-12T12:14:03.787Z,50.30
2018-04-12T12:16:31.443Z,47.70
2018-04-12T12:18:59.144Z,49.40
2018-04-12T12:21:27.677Z,44.53
2018-04-12T12:24:00.081Z,42.60
2018-04-12T12:26:28.183Z,44.10
2018-04-12T12:28:55.977Z,43.77
2018-04-12T12:31:25.186Z,47.13
2018-04-12T12:34:08.121Z,40.40
2018-04-12T12:36:35.867Z,41.13
2018-04-12T12:39:05.467Z,43.97
2018-04-12T12:41:34.382Z,38.70
2018-04-12T12:44:02.171Z,40.57
2018-04-12T12:46:31.905Z,38.23
2018-04-12T12:49:00.003Z,36.73
2018-04-12T12:51:31.887Z,38.37
2018-04-12T12:53:59.994Z,38.93
2018-04-12T12:56:27.663Z,38.17
2018-04-12T12:58:55.382Z,38.20
2018-04-12T13:01:29.649Z,40.17
2018-04-12T13:03:57.398Z,38.10
2018-04-12T13:06:27.129Z,37.87
2018-04-12T13:08:55.616Z,40.23
2018-04-12T13:11:23.374Z,38.23
2018-04-12T13:13:51.403Z,36.33
2018-04-12T13:16:19.086Z,36.03
2018-04-12T13:18:46.748Z,41.90
2018-04-12T13:21:15.454Z,38.60
2018-04-12T13:23:43.193Z,40.07
2018-04-12T13:26:11.745Z,36.33
2018-04-12T13:28:39.483Z,37.50
2018-04-12T13:31:09.429Z,37.47
2018-04-12T13:33:37.165Z,35.73
2018-04-12T13:36:06.541Z,35.10
2018-04-12T13:38:34.206Z,35.60
2018-04-12T13:41:04.969Z,35.87
2018-04-12T13:43:33.083Z,34.97
2018-04-12T13:46:01.609Z,35.37
2018-04-12T13:48:30.113Z,35.60
2018-04-12T13:51:00.659Z,34.90
2018-04-12T13:53:28.380Z,34.60
2018-04-12T13:56:00.316Z,32.47
2018-04-12T13:58:28.023Z,32.53
2018-04-12T14:03:49.618Z,32.20
2018-04-12T14:06:17.356Z,35.20
2018-04-12T14:08:45.115Z,32.63
2018-04-12T14:11:12.858Z,32.40
2018-04-12T14:13:43.401Z,32.87
2018-04-12T14:16:11.128Z,31.17
2018-04-12T14:18:38.874Z,36.43
2018-04-12T14:21:06.565Z,32.07
2018-04-12T14:23:35.074Z,30.57
2018-04-12T14:26:02.769Z,31.87
2018-04-12T14:28:30.416Z,34.70
2018-04-12T14:30:58.142Z,34.83
2018-04-12T14:33:27.430Z,30.27
2018-04-12T14:35:55.905Z,30.13
2018-04-12T14:38:29.450Z,31.43
2018-04-12T14:40:57.146Z,34.23
2018-04-12T14:43:39.709Z,29.73
2018-04-12T14:46:07.384Z,29.97
2018-04-12T14:48:36.114Z,29.37
2018-04-12T14:51:03.800Z,32.43
2018-04-12T14:53:33.298Z,32.27
2018-04-12T14:56:01.794Z,30.83
2018-04-12T14:58:31.236Z,32.17
2018-04-12T15:00:58.884Z,30.60
2018-04-12T15:03:26.609Z,29.80
2018-04-12T15:05:54.709Z,35.73
2018-04-12T15:08:24.855Z,28.63
2018-04-12T15:10:52.591Z,28.90
2018-04-12T15:13:33.094Z,31.67
2018-04-12T15:16:00.830Z,27.50
2018-04-12T15:18:47.133Z,29.90
2018-04-12T15:21:14.768Z,28.40
2018-04-12T15:23:48.826Z,30.83
2018-04-12T15:26:16.507Z,27.93
2018-04-12T15:31:47.958Z,31.67
2018-04-12T15:34:16.177Z,26.97
2018-04-12T15:36:52.358Z,25.97
2018-04-12T15:39:20.450Z,32.13
2018-04-12T15:42:04.949Z,28.73
2018-04-12T15:44:33.496Z,31.40
2018-04-12T15:47:02.336Z,32.53
2018-04-12T15:49:30.794Z,26.33
2018-04-12T15:52:07.077Z,25.27
2018-04-12T15:54:35.522Z,25.57
2018-04-12T15:57:03.702Z,28.23
2018-04-12T15:59:32.545Z,24.83
2018-04-12T16:02:01.779Z,26.37
2018-04-12T16:04:29.874Z,26.77
2018-04-12T16:07:05.042Z,26.93
2018-04-12T16:09:32.712Z,27.87
2018-04-12T16:12:04.089Z,29.73
2018-04-12T16:14:32.117Z,24.73
2018-04-12T16:17:00.385Z,24.10
2018-04-12T16:19:28.511Z,28.23
2018-04-12T16:21:56.336Z,24.13
2018-04-12T16:24:24.055Z,23.03
2018-04-12T16:26:51.837Z,23.20
2018-04-12T16:29:19.504Z,23.93
2018-04-12T16:31:54.016Z,26.07
2018-04-12T16:34:21.689Z,29.40
2018-04-12T16:37:00.276Z,23.43
2018-04-12T16:39:28.317Z,24.07
2018-04-12T16:41:56.141Z,23.00
2018-04-12T16:44:24.633Z,24.63
2018-04-12T16:46:56.724Z,19.97
2018-04-12T16:49:24.494Z,23.40
2018-04-12T16:51:58.491Z,22.23
2018-04-12T16:54:26.501Z,19.87
2018-04-12T16:56:57.936Z,21.60
2018-04-12T16:59:25.702Z,21.20
2018-04-12T17:01:54.701Z,19.00
2018-04-12T17:04:22.380Z,18.93
2018-04-12T17:06:50.212Z,18.37
2018-04-12T17:09:17.928Z,20.87
2018-04-12T17:11:45.725Z,21.83
2018-04-12T17:14:13.491Z,22.77
2018-04-12T17:16:41.330Z,21.73
2018-04-12T17:19:09.864Z,21.40
2018-04-12T17:21:37.749Z,22.80
2018-04-12T17:24:05.480Z,17.60
2018-04-12T17:26:36.773Z,17.13
2018-04-12T17:29:04.436Z,17.97
2018-04-12T17:31:39.356Z,21.87
2018-04-12T17:34:07.038Z,18.63
2018-04-12T17:36:41.697Z,21.27
2018-04-12T17:39:09.410Z,16.87
2018-04-12T17:41:45.349Z,21.87
2018-04-12T17:44:12.998Z,19.13
2018-04-12T17:46:46.794Z,21.73
2018-04-12T17:49:14.491Z,20.60
2018-04-12T17:51:48.065Z,20.37
2018-04-12T17:54:15.796Z,18.97
2018-04-12T17:56:45.576Z,18.87
2018-04-12T17:59:13.379Z,19.53
2018-04-12T18:01:41.214Z,18.50
2018-04-12T18:04:09.294Z,19.90
2018-04-12T18:06:37.526Z,21.67
2018-04-12T18:09:05.943Z,19.03
2018-04-12T18:11:34.783Z,19.70
2018-04-12T18:14:02.513Z,21.03
2018-04-12T18:16:34.813Z,18.13
2018-04-12T18:19:02.513Z,16.97
2018-04-12T18:21:30.246Z,21.17
2018-04-12T18:23:59.083Z,19.17
2018-04-12T18:26:28.663Z,21.40
2018-04-12T18:28:56.753Z,19.60
2018-04-12T18:31:27.787Z,16.27
2018-04-12T18:33:56.014Z,22.77
2018-04-12T18:36:23.781Z,17.27
2018-04-12T18:38:51.497Z,24.27
2018-04-12T18:41:24.028Z,19.47
2018-04-12T18:43:52.941Z,17.70
2018-04-12T18:46:20.748Z,23.57
2018-04-12T18:48:49.892Z,19.67
2018-04-12T18:51:21.092Z,21.93
2018-04-12T18:53:49.522Z,18.27
2018-04-12T18:56:17.339Z,21.17
2018-04-12T18:58:45.446Z,17.50
2018-04-12T19:01:15.236Z,18.73
2018-04-12T19:03:42.930Z,20.00
2018-04-12T19:06:11.751Z,23.97
2018-04-12T19:08:40.337Z,22.33
2018-04-12T19:11:13.404Z,21.20
2018-04-12T19:13:41.118Z,20.97
2018-04-12T19:16:08.961Z,18.60
2018-04-12T19:18:38.138Z,24.00
2018-04-12T19:21:09.982Z,19.03
2018-04-12T19:23:38.055Z,26.30
2018-04-12T19:26:05.828Z,25.77
2018-04-12T19:28:33.506Z,21.40
2018-04-12T19:31:05.480Z,20.27
2018-04-12T19:33:34.338Z,22.47
2018-04-12T19:36:02.207Z,27.40
2018-04-12T19:38:29.912Z,24.43
2018-04-12T19:40:58.990Z,23.00
2018-04-12T19:43:27.457Z,21.97
2018-04-12T19:45:57.239Z,26.47
2018-04-12T19:48:24.901Z,28.63
2018-04-12T19:50:57.847Z,28.23
2018-04-12T19:53:25.526Z,25.23
2018-04-12T19:55:54.641Z,26.53
2018-04-12T19:58:22.374Z,28.47
2018-04-12T20:00:50.065Z,27.13
2018-04-12T20:03:17.776Z,23.73
2018-04-12T20:05:49.351Z,25.20
2018-04-12T20:08:17.381Z,25.90
2018-04-12T20:10:46.014Z,25.13
2018-04-12T20:13:13.765Z,25.83
2018-04-12T20:15:52.008Z,23.60
2018-04-12T20:18:19.734Z,21.50
2018-04-12T20:20:54.448Z,23.67
2018-04-12T20:23:22.898Z,26.10
2018-04-12T20:25:55.128Z,31.03
2018-04-12T20:28:23.965Z,27.40
2018-04-12T20:30:52.037Z,24.40
2018-04-12T20:33:19.737Z,29.47
2018-04-12T20:35:51.719Z,24.07
2018-04-12T20:38:19.473Z,24.83
2018-04-12T20:41:05.765Z,34.80
2018-04-12T20:43:33.830Z,34.60
2018-04-12T20:46:03.489Z,26.80
2018-04-12T20:48:31.146Z,32.60
2018-04-12T20:51:05.379Z,28.90
2018-04-12T20:53:33.070Z,31.00
2018-04-12T20:56:00.803Z,25.83
2018-04-12T20:58:28.510Z,28.03
2018-04-12T21:01:00.580Z,37.77
2018-04-12T21:03:28.273Z,25.30
2018-04-12T21:05:56.966Z,34.03
2018-04-12T21:08:25.048Z,25.97
2018-04-12T21:11:03.979Z,24.83
2018-04-12T21:13:31.683Z,30.87
2018-04-12T21:15:59.425Z,28.57
2018-04-12T21:18:27.109Z,31.70
2018-04-12T21:20:55.824Z,34.53
2018-04-12T21:23:24.258Z,29.90
2018-04-12T21:25:59.835Z,33.33
2018-04-12T21:28:27.537Z,38.20
2018-04-12T21:30:59.335Z,31.13
2018-04-12T21:33:27.774Z,30.43
2018-04-12T21:35:56.455Z,31.00
2018-04-12T21:38:24.114Z,34.53
2018-04-12T21:40:52.202Z,31.33
2018-04-12T21:43:19.919Z,31.97
2018-04-12T21:46:02.097Z,31.47
2018-04-12T21:48:30.170Z,31.63
2018-04-12T21:51:11.436Z,31.53
2018-04-12T21:53:39.905Z,28.37
2018-04-12T21:56:09.418Z,29.37
2018-04-12T21:58:37.896Z,26.43
2018-04-12T22:01:07.454Z,22.83
2018-04-12T22:03:35.590Z,25.87
2018-04-12T22:06:05.093Z,23.83
2018-04-12T22:08:32.728Z,25.37
2018-04-12T22:11:02.881Z,26.00
2018-04-12T22:13:30.999Z,30.10
2018-04-12T22:16:16.075Z,29.40
2018-04-12T22:18:44.160Z,28.27
2018-04-12T22:21:17.209Z,27.60
2018-04-12T22:23:44.942Z,31.73
2018-04-12T22:26:13.594Z,29.53
2018-04-12T22:28:41.242Z,24.73
2018-04-12T22:31:23.849Z,25.37
2018-04-12T22:33:53.004Z,25.30
2018-04-12T22:36:27.604Z,26.17
2018-04-12T22:38:56.034Z,21.30
2018-04-12T22:41:47.276Z,25.40
2018-04-12T22:44:14.957Z,24.27
2018-04-12T22:46:43.397Z,26.43
2018-04-12T22:49:11.901Z,21.53
2018-04-12T22:51:46.945Z,25.07
2018-04-12T22:54:15.041Z,18.97
2018-04-12T22:56:42.797Z,23.90
2018-04-12T22:59:11.209Z,25.03
2018-04-12T23:01:39.667Z,20.70
2018-04-12T23:04:07.433Z,19.23
2018-04-12T23:06:37.117Z,26.80
2018-04-12T23:09:06.215Z,20.03
2018-04-12T23:11:37.318Z,18.87
2018-04-12T23:14:05.062Z,21.10
2018-04-12T23:16:35.113Z,19.50
2018-04-12T23:19:03.241Z,16.87
2018-04-12T23:21:31.998Z,19.33
2018-04-12T23:23:59.702Z,18.70
2018-04-12T23:26:34.756Z,19.10
2018-04-12T23:29:03.245Z,17.30
2018-04-12T23:31:32.400Z,19.87
2018-04-12T23:34:00.084Z,21.03
2018-04-12T23:36:39.517Z,20.17
2018-04-12T23:39:07.616Z,19.53
2018-04-12T23:41:36.728Z,22.27
2018-04-12T23:44:04.398Z,26.90
2018-04-12T23:46:42.915Z,22.10
2018-04-12T23:49:11.401Z,27.33
2018-04-12T23:51:40.877Z,28.17
2018-04-12T23:54:08.566Z,22.40
2018-04-12T23:56:37.464Z,18.80
2018-04-12T23:59:05.544Z,17.80
